createdAt,value
2019-03-15T00:04:58.974Z,7.40
2019-03-15T00:10:10.442Z,7.46
2019-03-15T00:15:18.258Z,7.46
2019-03-15T00:20:23.340Z,7.37
2019-03-15T00:25:29.682Z,7.36
2019-03-15T00:30:34.754Z,7.37
2019-03-15T00:35:49.039Z,7.35
2019-03-15T00:40:54.560Z,7.32
2019-03-15T00:46:06.508Z,7.33
2019-03-15T00:51:12.151Z,7.27
2019-03-15T00:56:18.610Z,7.28
2019-03-15T01:01:24.894Z,7.19
2019-03-15T01:06:29.992Z,7.20
2019-03-15T01:11:34.986Z,7.27
2019-03-15T01:16:40.416Z,7.18
2019-03-15T01:21:45.388Z,7.29
2019-03-15T01:26:50.485Z,7.34
2019-03-15T01:31:55.493Z,7.25
2019-03-15T01:37:01.611Z,7.33
2019-03-15T01:42:06.930Z,7.29
2019-03-15T01:47:13.314Z,7.33
2019-03-15T01:52:18.372Z,7.24
2019-03-15T01:57:23.872Z,7.25
2019-03-15T02:02:29.190Z,7.30
2019-03-15T02:07:34.826Z,7.26
2019-03-15T02:12:39.874Z,7.34
2019-03-15T02:17:45.314Z,7.40
2019-03-15T02:22:50.424Z,7.46
2019-03-15T02:28:14.528Z,7.45
2019-03-15T02:33:20.101Z,7.52
2019-03-15T02:38:25.375Z,7.52
2019-03-15T02:43:31.464Z,7.53
2019-03-15T02:48:36.963Z,7.53
2019-03-15T02:53:43.291Z,7.45
2019-03-15T02:58:50.447Z,7.41
2019-03-15T03:03:57.560Z,7.40
2019-03-15T03:09:03.367Z,7.45
2019-03-15T03:19:51.677Z,7.37
2019-03-15T03:25:01.534Z,7.37
2019-03-15T03:30:17.171Z,7.45
2019-03-15T03:35:22.672Z,7.36
2019-03-15T03:40:29.732Z,7.29
2019-03-15T03:45:35.600Z,7.24
2019-03-15T03:50:41.800Z,7.20
2019-03-15T03:55:48.044Z,7.17
2019-03-15T04:00:54.638Z,7.17
2019-03-15T04:05:59.965Z,7.08
2019-03-15T04:11:05.937Z,7.09
2019-03-15T04:16:11.378Z,7.08
2019-03-15T04:21:16.982Z,7.08
2019-03-15T04:26:22.948Z,6.98
2019-03-15T04:31:28.005Z,6.98
2019-03-15T04:36:33.050Z,6.99
2019-03-15T04:41:38.109Z,6.99
2019-03-15T04:46:43.427Z,6.93
2019-03-15T04:51:48.560Z,6.88
2019-03-15T04:56:54.704Z,6.88
2019-03-15T05:02:01.736Z,6.84
2019-03-15T05:07:11.113Z,6.77
2019-03-15T05:12:17.017Z,6.85
2019-03-15T05:17:23.440Z,6.78
2019-03-15T05:22:28.810Z,6.78
2019-03-15T05:27:33.808Z,6.87
2019-03-15T05:32:39.356Z,6.94
2019-03-15T05:37:44.778Z,7.00
2019-03-15T05:42:49.897Z,7.03
2019-03-15T05:47:55.104Z,7.05
2019-03-15T05:53:00.572Z,7.06
2019-03-15T05:58:05.926Z,7.12
2019-03-15T06:03:12.639Z,7.10
2019-03-15T06:08:20.373Z,7.09
2019-03-15T06:13:25.778Z,7.08
2019-03-15T06:18:30.788Z,7.14
2019-03-15T06:23:38.740Z,7.27
2019-03-15T06:28:44.274Z,7.38
2019-03-15T06:33:50.910Z,7.50
2019-03-15T06:38:56.157Z,7.48
2019-03-15T06:44:02.434Z,7.41
2019-03-15T06:49:10.099Z,7.39
2019-03-15T06:54:15.907Z,7.44
2019-03-15T06:59:21.183Z,7.53
2019-03-15T07:04:26.273Z,7.68
2019-03-15T07:09:31.497Z,7.91
2019-03-15T07:14:36.980Z,8.06
2019-03-15T07:19:42.116Z,8.28
2019-03-15T07:24:47.566Z,8.44
2019-03-15T07:29:53.099Z,8.46
2019-03-15T07:34:58.214Z,8.54
2019-03-15T07:40:05.527Z,8.62
2019-03-15T07:45:12.441Z,8.57
2019-03-15T07:50:23.290Z,8.52
2019-03-15T07:55:29.180Z,8.61
2019-03-15T08:00:41.450Z,8.59
2019-03-15T08:05:48.910Z,8.68
2019-03-15T08:10:55.446Z,8.66
2019-03-15T08:16:01.062Z,8.63
2019-03-15T08:21:06.380Z,8.77
2019-03-15T08:26:13.126Z,8.74
2019-03-15T08:31:18.538Z,8.75
2019-03-15T08:36:24.043Z,8.72
2019-03-15T08:41:28.884Z,8.79
2019-03-15T08:46:36.544Z,8.91
2019-03-15T08:51:41.821Z,9.02
2019-03-15T08:56:47.308Z,9.01
2019-03-15T09:01:52.550Z,9.06
2019-03-15T09:06:59.325Z,9.05
2019-03-15T09:12:05.498Z,9.15
2019-03-15T09:17:13.779Z,9.16
2019-03-15T09:22:19.191Z,9.27
2019-03-15T09:27:24.864Z,9.30
2019-03-15T09:32:30.655Z,9.38
2019-03-15T09:37:36.218Z,9.46
2019-03-15T09:42:41.262Z,9.56
2019-03-15T09:47:48.390Z,9.66
2019-03-15T09:52:53.772Z,9.95
2019-03-15T09:57:58.964Z,10.51
2019-03-15T10:03:05.193Z,10.88
2019-03-15T10:08:11.020Z,11.05
2019-03-15T10:13:16.262Z,11.69
2019-03-15T10:18:22.184Z,11.97
2019-03-15T10:23:27.526Z,11.21
2019-03-15T10:28:33.866Z,10.87
2019-03-15T10:33:49.801Z,10.53
2019-03-15T10:38:46.759Z,10.05
2019-03-15T10:43:52.224Z,9.91
2019-03-15T10:48:59.656Z,9.78
2019-03-15T10:54:06.132Z,9.65
2019-03-15T10:59:14.066Z,9.57
2019-03-15T11:04:33.081Z,9.63
2019-03-15T11:09:39.465Z,9.68
2019-03-15T11:14:44.500Z,9.62
2019-03-15T11:19:49.567Z,9.65
2019-03-15T11:24:55.053Z,9.65
2019-03-15T11:30:00.439Z,9.56
2019-03-15T11:35:08.238Z,9.52
2019-03-15T11:40:14.498Z,9.55
2019-03-15T11:45:19.782Z,9.53
2019-03-15T11:50:25.302Z,9.53
2019-03-15T11:55:31.020Z,9.52
2019-03-15T12:00:37.092Z,9.47
2019-03-15T12:05:43.442Z,9.56
2019-03-15T12:10:49.009Z,9.57
2019-03-15T12:15:54.265Z,9.42
2019-03-15T12:20:59.413Z,9.39
2019-03-15T12:26:04.980Z,9.37
2019-03-15T12:31:10.827Z,9.34
2019-03-15T12:36:17.046Z,9.32
2019-03-15T12:41:24.755Z,9.37
2019-03-15T12:46:30.504Z,9.31
2019-03-15T12:51:37.223Z,9.31
2019-03-15T12:56:53.187Z,9.30
2019-03-15T13:01:50.866Z,9.33
2019-03-15T13:07:09.152Z,9.34
2019-03-15T13:12:15.203Z,9.23
2019-03-15T13:17:59.837Z,9.12
2019-03-15T13:23:05.286Z,9.15
2019-03-15T13:28:11.364Z,9.10
2019-03-15T13:33:20.821Z,9.05
2019-03-15T13:38:23.161Z,9.05
2019-03-15T13:43:28.328Z,9.07
2019-03-15T13:48:33.818Z,9.09
2019-03-15T13:53:39.164Z,9.16
2019-03-15T13:58:56.728Z,9.18
2019-03-15T14:03:52.283Z,9.20
2019-03-15T14:09:16.369Z,9.36
2019-03-15T14:14:21.686Z,9.36
2019-03-15T14:19:27.180Z,9.46
2019-03-15T14:24:32.500Z,9.53
2019-03-15T14:29:38.011Z,9.66
2019-03-15T14:34:43.419Z,9.78
2019-03-15T14:39:57.907Z,9.87
2019-03-15T14:45:03.508Z,9.93
2019-03-15T14:50:08.953Z,9.98
2019-03-15T14:55:14.701Z,10.08
2019-03-15T15:00:20.493Z,10.12
2019-03-15T15:05:27.718Z,10.25
2019-03-15T15:10:33.042Z,10.36
2019-03-15T15:15:38.353Z,10.49
2019-03-15T15:20:45.875Z,10.55
2019-03-15T15:25:56.156Z,10.57
2019-03-15T15:31:01.481Z,10.54
2019-03-15T15:36:06.823Z,10.56
2019-03-15T15:41:12.070Z,10.68
2019-03-15T15:46:28.186Z,10.72
2019-03-15T15:51:33.400Z,10.73
2019-03-15T15:56:55.691Z,10.78
2019-03-15T16:02:02.030Z,10.77
2019-03-15T16:07:11.050Z,10.78
2019-03-15T16:12:19.153Z,10.76
2019-03-15T16:17:26.394Z,10.68
2019-03-15T16:22:31.874Z,10.68
2019-03-15T16:27:38.484Z,10.64
2019-03-15T16:32:44.832Z,10.72
2019-03-15T16:37:55.153Z,10.74
2019-03-15T16:43:00.565Z,10.97
2019-03-15T16:48:07.006Z,11.10
2019-03-15T16:53:12.109Z,11.21
2019-03-15T16:58:17.357Z,11.35
2019-03-15T17:03:22.624Z,11.50
2019-03-15T17:08:28.415Z,11.55
2019-03-15T17:13:37.747Z,11.58
2019-03-15T17:18:44.936Z,11.63
2019-03-15T17:23:51.393Z,11.94
2019-03-15T17:29:19.813Z,11.99
2019-03-15T17:34:25.130Z,11.94
2019-03-15T17:39:30.561Z,11.76
2019-03-15T17:44:36.469Z,11.15
2019-03-15T17:49:46.863Z,10.55
2019-03-15T17:54:54.496Z,10.31
2019-03-15T18:00:09.088Z,10.09
2019-03-15T18:05:15.110Z,9.98
2019-03-15T18:10:25.689Z,9.96
2019-03-15T18:15:30.821Z,9.94
2019-03-15T18:20:36.311Z,9.90
2019-03-15T18:25:42.167Z,9.88
2019-03-15T18:30:47.963Z,9.84
2019-03-15T18:36:14.932Z,9.88
2019-03-15T18:41:20.412Z,9.88
2019-03-15T18:46:25.773Z,9.87
2019-03-15T18:51:33.207Z,9.86
2019-03-15T18:56:40.243Z,10.07
2019-03-15T19:01:46.003Z,10.23
2019-03-15T19:06:51.263Z,10.22
2019-03-15T19:11:56.682Z,10.17
2019-03-15T19:17:02.288Z,10.20
2019-03-15T19:22:10.009Z,10.24
2019-03-15T19:27:15.923Z,10.30
2019-03-15T19:32:22.081Z,10.31
2019-03-15T19:37:27.152Z,10.24
2019-03-15T19:42:33.857Z,10.20
2019-03-15T19:47:38.983Z,10.12
2019-03-15T19:52:44.240Z,10.10
2019-03-15T19:57:51.129Z,10.13
2019-03-15T20:02:59.891Z,10.07
2019-03-15T20:08:06.230Z,10.02
2019-03-15T20:13:15.291Z,10.01
2019-03-15T20:24:07.283Z,10.02
2019-03-15T20:29:22.953Z,9.93
2019-03-15T20:34:28.322Z,9.95
2019-03-15T20:39:35.116Z,9.86
2019-03-15T20:44:41.317Z,9.87
2019-03-15T20:50:04.550Z,9.87
2019-03-15T20:55:11.025Z,9.86
2019-03-15T21:00:34.845Z,9.83
2019-03-15T21:05:31.982Z,9.80
2019-03-15T21:10:37.903Z,9.82
2019-03-15T21:15:46.871Z,9.82
2019-03-15T21:20:54.200Z,9.70
2019-03-15T21:26:00.452Z,9.69
2019-03-15T21:31:07.788Z,9.62
2019-03-15T21:36:13.323Z,9.61
2019-03-15T21:41:18.678Z,9.55
2019-03-15T21:46:24.697Z,9.57
2019-03-15T21:51:30.061Z,9.57
2019-03-15T21:56:35.823Z,9.48
2019-03-15T22:01:41.513Z,9.45
2019-03-15T22:06:46.618Z,9.41
2019-03-15T22:11:51.787Z,9.37
2019-03-15T22:16:59.032Z,9.20
2019-03-15T22:22:04.507Z,9.17
2019-03-15T22:27:09.633Z,9.08
2019-03-15T22:32:14.687Z,9.04
2019-03-15T22:37:20.751Z,8.99
2019-03-15T22:42:25.763Z,8.94
2019-03-15T22:47:32.191Z,8.91
2019-03-15T22:52:37.226Z,8.84
2019-03-15T22:57:43.295Z,8.91
2019-03-15T23:02:48.361Z,8.87
2019-03-15T23:07:54.255Z,8.79
2019-03-15T23:12:59.750Z,8.73
2019-03-15T23:18:05.939Z,8.63
2019-03-15T23:23:23.411Z,8.67
2019-03-15T23:28:20.413Z,8.61
2019-03-15T23:33:29.517Z,8.61
2019-03-15T23:38:54.853Z,8.56
2019-03-15T23:44:00.453Z,8.49
2019-03-15T23:49:05.849Z,8.47
2019-03-15T23:54:10.869Z,8.37
2019-03-15T23:59:16.199Z,8.42
